This is the latest recevied weather packets stored in our database for station/object 2E0RGX-13. If no packets are shown the sender has not sent any weather packets the latest 10 day(s).
| Time | Temp. | Humidity | Pressure | Rain* | Wind** | Luminosity | Snow |
|---|---|---|---|---|---|---|---|
| 1777738531 | 21.67° C | 51% | 1008.7 hPa | 0 mm | - | 0 W/m² | - |
| 1777738227 | 21.67° C | 46% | 1008.8 hPa | 0 mm | - | 0 W/m² | - |
| 1777737923 | 21.67° C | 46% | 1008.6 hPa | 0 mm | - | 1 W/m² | - |
| 1777737619 | 21.67° C | 46% | 1009 hPa | 0 mm | - | 1 W/m² | - |
| 1777737315 | 21.67° C | 45% | 1009 hPa | 0 mm | - | 1 W/m² | - |
| 1777737011 | 21.67° C | 46% | 1009.1 hPa | 0 mm | - | 1 W/m² | - |
| 1777736707 | 21.67° C | 45% | 1009 hPa | 0 mm | - | 1 W/m² | - |
| 1777736403 | 22.22° C | 44% | 1008.9 hPa | 0 mm | - | 1 W/m² | - |
| 1777736099 | 21.67° C | 44% | 1009.1 hPa | 0 mm | - | 1 W/m² | - |
| 1777735795 | 22.22° C | 44% | 1009.2 hPa | 0 mm | - | 1 W/m² | - |
| 1777735491 | 22.22° C | 43% | 1009.4 hPa | 0 mm | - | 1 W/m² | - |
| 1777735187 | 22.22° C | 43% | 1009.6 hPa | 0 mm | - | 1 W/m² | - |
| 1777734883 | 22.78° C | 42% | 1009.5 hPa | 0 mm | - | 1 W/m² | - |
| 1777734579 | 23.33° C | 41% | 1009.4 hPa | 0 mm | - | 2 W/m² | - |
| 1777734275 | 22.78° C | 41% | 1009.6 hPa | 0 mm | - | 3 W/m² | - |
| 1777733971 | 23.33° C | 41% | 1009.8 hPa | 0 mm | - | 3 W/m² | - |
| 1777733667 | 22.78° C | 42% | 1009.6 hPa | 0 mm | - | 3 W/m² | - |
| 1777733363 | 22.22° C | 43% | 1009.9 hPa | 0 mm | - | 2 W/m² | - |
| 1777733059 | 22.78° C | 42% | 1010.1 hPa | 0 mm | - | 2 W/m² | - |
| 1777732755 | 23.33° C | 39% | 1009.9 hPa | 0 mm | - | 3 W/m² | - |
| 1777732451 | 23.89° C | 38% | 1009.9 hPa | 0 mm | - | 3 W/m² | - |
| 1777732147 | 23.33° C | 39% | 1010.2 hPa | 0 mm | - | 4 W/m² | - |
| 1777730610 | 22.22° C | 40% | 1010.7 hPa | 0 mm | - | 4 W/m² | - |
| 1777730306 | 22.78° C | 38% | 1010.5 hPa | 0 mm | - | 4 W/m² | - |
| 1777729699 | 22.22° C | 40% | 1010.8 hPa | 0 mm | - | 4 W/m² | - |
* Rain latest hour (hover to see other rain measurements)
** Current wind speed in m/s (hover to see current wind gust speed)